48.4°F
Current conditions from King Hill
Updated every 5 minutes
 
  Wednesday August 20, 2014

Station Historical Data
Daily Summary for May 18, 2011 Units:  Metric    English   Both
« Previous Day
Next Day »
Daily Weekly Monthly Yearly Custom
  High: Low: Average:
Temperature: 20.1 °C 12.6 °C 16.4 °C
Dew Point: 15.6 °C 11.3 °C 13.6 °C
Humidity: 95% 70% 83%
Wind Speed: 9.7km/h 1.6km/h 4km/h
Wind Gust: 27.4km/h - -
Wind- - South
Pressure: 1020.2 hPa 1017.5 hPa -
Precipitation: 0 mm    
Historical Graphs
 
 
Tabular Data for May 18, 2011
Time Temperature Dew Point Pressure Wind Wind Speed Wind Gust Humidity Daily Rainfall
00:00 14.6 °C 12.8 °C 1018.8 hPa South 6.4 km/h 19.3 km/h 89% 0 mm
00:05 14.8 °C 12.8 °C 1018.8 hPa South 1.6 km/h 19.3 km/h 88% 0 mm
00:10 14.8 °C 12.9 °C 1018.8 hPa Calm   11.3 km/h 88% 0 mm
00:15 14.8 °C 12.8 °C 1018.8 hPa Calm   6.4 km/h 88% 0 mm
00:20 14.7 °C 12.7 °C 1018.8 hPa Calm   6.4 km/h 88% 0 mm
00:25 14.4 °C 12.7 °C 1018.8 hPa Calm     89% 0 mm
00:30 14.2 °C 12.6 °C 1018.8 hPa South 1.6 km/h 3.2 km/h 90% 0 mm
00:35 14 °C 12.4 °C 1018.8 hPa SE 3.2 km/h 4.8 km/h 90% 0 mm
00:40 13.9 °C 12.3 °C 1018.8 hPa Calm   4.8 km/h 90% 0 mm
00:45 13.8 °C 12.2 °C 1018.8 hPa Calm   1.6 km/h 90% 0 mm
00:50 13.8 °C 12.3 °C 1018.8 hPa Calm     91% 0 mm
00:55 13.7 °C 12.3 °C 1018.8 hPa Calm   1.6 km/h 91% 0 mm
01:00 13.6 °C 12.3 °C 1018.8 hPa South 3.2 km/h 3.2 km/h 92% 0 mm
01:05 13.6 °C 12.3 °C 1018.8 hPa Calm   4.8 km/h 92% 0 mm
01:10 13.5 °C 12.2 °C 1018.8 hPa South 1.6 km/h 6.4 km/h 92% 0 mm
01:15 13.6 °C 12.3 °C 1018.8 hPa Calm   9.7 km/h 92% 0 mm
01:20 13.6 °C 12.2 °C 1018.8 hPa Calm   9.7 km/h 91% 0 mm
01:25 13.4 °C 12 °C 1018.8 hPa Calm     91% 0 mm
01:30 13.2 °C 11.8 °C 1018.8 hPa Calm     91% 0 mm
01:35 13.1 °C 11.8 °C 1018.8 hPa Calm     92% 0 mm
01:40 13.1 °C 11.8 °C 1018.5 hPa Calm     92% 0 mm
01:45 12.9 °C 11.4 °C 1018.8 hPa Calm     91% 0 mm
01:50 12.7 °C 11.4 °C 1018.8 hPa Calm     92% 0 mm
01:55 12.6 °C 11.3 °C 1018.8 hPa Calm     92% 0 mm
02:05 12.7 °C 11.6 °C 1018.8 hPa Calm   3.2 km/h 93% 0 mm
02:10 12.6 °C 11.5 °C 1018.8 hPa SSE 1.6 km/h 3.2 km/h 93% 0 mm
02:15 12.6 °C 11.4 °C 1018.8 hPa Calm   3.2 km/h 93% 0 mm
02:20 12.7 °C 11.7 °C 1018.8 hPa SSE 1.6 km/h 3.2 km/h 94% 0 mm
02:25 12.7 °C 11.7 °C 1018.8 hPa Calm   3.2 km/h 94% 0 mm
02:30 12.7 °C 11.7 °C 1018.8 hPa Calm     94% 0 mm
02:35 12.7 °C 11.8 °C 1018.8 hPa Calm     94% 0 mm
02:40 12.8 °C 12.1 °C 1018.8 hPa Calm   4.8 km/h 95% 0 mm
02:45 12.9 °C 12.2 °C 1018.5 hPa South 1.6 km/h 4.8 km/h 95% 0 mm
02:50 13.1 °C 12.3 °C 1018.5 hPa Calm   3.2 km/h 95% 0 mm
02:55 13.1 °C 12.3 °C 1018.8 hPa Calm   4.8 km/h 95% 0 mm
03:00 13.2 °C 12.4 °C 1018.8 hPa NNE 1.6 km/h 9.7 km/h 95% 0 mm
03:05 13.2 °C 12.4 °C 1018.8 hPa NE 1.6 km/h 9.7 km/h 95% 0 mm
03:10 13.2 °C 12.3 °C 1018.8 hPa Calm   6.4 km/h 94% 0 mm
03:15 13.3 °C 12.3 °C 1018.8 hPa South 1.6 km/h 8 km/h 94% 0 mm
03:20 13.3 °C 12.4 °C 1018.8 hPa South 1.6 km/h 8 km/h 94% 0 mm
03:25 13.6 °C 12.4 °C 1018.8 hPa ESE 1.6 km/h 6.4 km/h 93% 0 mm
03:30 14 °C 12.6 °C 1018.8 hPa SE 1.6 km/h 14.5 km/h 91% 0 mm
03:35 14.5 °C 12.6 °C 1018.5 hPa SSW 4.8 km/h 14.5 km/h 88% 0 mm
03:40 14.7 °C 12.5 °C 1018.5 hPa SSW 3.2 km/h 12.9 km/h 87% 0 mm
03:45 14.6 °C 12.7 °C 1018.5 hPa Calm   11.3 km/h 88% 0 mm
03:50 14.3 °C 12.3 °C 1018.5 hPa South 1.6 km/h 4.8 km/h 88% 0 mm
04:00 13.8 °C 12.2 °C 1018.5 hPa Calm   1.6 km/h 90% 0 mm
04:05 13.6 °C 12 °C 1018.5 hPa Calm   1.6 km/h 90% 0 mm
04:10 13.5 °C 12.1 °C 1018.5 hPa Calm   3.2 km/h 91% 0 mm
04:15 13.3 °C 12.1 °C 1018.5 hPa Calm   6.4 km/h 92% 0 mm
04:20 13.2 °C 11.9 °C 1018.5 hPa Calm   6.4 km/h 92% 0 mm
04:25 13.2 °C 11.9 °C 1018.5 hPa SE 1.6 km/h 6.4 km/h 92% 0 mm
04:30 13.2 °C 12.1 °C 1018.5 hPa Calm   4.8 km/h 93% 0 mm
04:35 13.2 °C 12.1 °C 1018.5 hPa Calm   4.8 km/h 93% 0 mm
04:45 13.1 °C 11.9 °C 1018.2 hPa SE 1.6 km/h 4.8 km/h 93% 0 mm
04:50 13.1 °C 11.9 °C 1018.5 hPa Calm   4.8 km/h 93% 0 mm
05:00 13.1 °C 11.9 °C 1018.5 hPa Calm   1.6 km/h 93% 0 mm
05:10 13 °C 11.9 °C 1018.5 hPa Calm   6.4 km/h 93% 0 mm
05:15 12.9 °C 11.8 °C 1018.5 hPa Calm   1.6 km/h 93% 0 mm
05:20 12.9 °C 11.8 °C 1018.5 hPa Calm     93% 0 mm
05:25 12.9 °C 11.8 °C 1018.5 hPa Calm   1.6 km/h 93% 0 mm
05:30 12.8 °C 11.7 °C 1018.5 hPa Calm   3.2 km/h 93% 0 mm
05:35 12.7 °C 11.6 °C 1018.5 hPa Calm   3.2 km/h 93% 0 mm
05:40 12.7 °C 11.6 °C 1018.5 hPa Calm   3.2 km/h 93% 0 mm
05:45 12.7 °C 11.6 °C 1018.5 hPa Calm     93% 0 mm
05:50 12.7 °C 11.8 °C 1018.5 hPa Calm     94% 0 mm
05:55 12.8 °C 11.8 °C 1018.5 hPa Calm   4.8 km/h 94% 0 mm
06:00 12.9 °C 11.9 °C 1018.8 hPa SE 4.8 km/h 8 km/h 94% 0 mm
06:05 13.2 °C 12.2 °C 1018.8 hPa Calm   12.9 km/h 94% 0 mm
06:10 13.2 °C 12.1 °C 1018.8 hPa Calm   12.9 km/h 93% 0 mm
06:15 13.2 °C 12.1 °C 1018.8 hPa ESE 1.6 km/h 4.8 km/h 93% 0 mm
06:20 13.3 °C 12.4 °C 1018.8 hPa Calm   4.8 km/h 94% 0 mm
06:25 13.8 °C 12.6 °C 1018.8 hPa ENE 4.8 km/h 17.7 km/h 92% 0 mm
06:30 14.3 °C 12.7 °C 1018.8 hPa SSE 1.6 km/h 17.7 km/h 90% 0 mm
06:35 14.6 °C 13.3 °C 1018.8 hPa Calm   9.7 km/h 92% 0 mm
06:40 14.7 °C 12.9 °C 1018.8 hPa SE 4.8 km/h 17.7 km/h 89% 0 mm
06:45 15 °C 13.1 °C 1018.8 hPa SSE 3.2 km/h 17.7 km/h 88% 0 mm
06:50 15.3 °C 13.2 °C 1019.2 hPa SSW 6.4 km/h 11.3 km/h 87% 0 mm
06:55 15.6 °C 13.2 °C 1019.2 hPa SSW 1.6 km/h 11.3 km/h 86% 0 mm
07:00 15.7 °C 13.4 °C 1019.5 hPa SSW 4.8 km/h 11.3 km/h 86% 0 mm
07:05 15.7 °C 13.3 °C 1019.2 hPa SW 1.6 km/h 11.3 km/h 86% 0 mm
07:10 15.6 °C 13.1 °C 1019.2 hPa SSW 4.8 km/h 11.3 km/h 85% 0 mm
07:15 15.5 °C 13.2 °C 1019.5 hPa SSW 1.6 km/h 11.3 km/h 86% 0 mm
07:20 15.5 °C 13.2 °C 1019.5 hPa SSW 1.6 km/h 8 km/h 86% 0 mm
07:25 15.4 °C 13.3 °C 1019.5 hPa Calm   6.4 km/h 87% 0 mm
07:30 15.4 °C 13.2 °C 1019.2 hPa SSW 1.6 km/h 6.4 km/h 87% 0 mm
07:35 15.3 °C 13.1 °C 1019.2 hPa Calm   6.4 km/h 87% 0 mm
07:40 15.2 °C 13.1 °C 1019.2 hPa Calm   4.8 km/h 87% 0 mm
07:45 15.2 °C 13.1 °C 1019.2 hPa Calm   4.8 km/h 87% 0 mm
07:50 15.3 °C 13.1 °C 1019.5 hPa Calm   3.2 km/h 87% 0 mm
07:55 15.3 °C 13.2 °C 1019.2 hPa SSW 1.6 km/h 9.7 km/h 87% 0 mm
08:00 15.5 °C 13.3 °C 1019.2 hPa SSW 1.6 km/h 9.7 km/h 87% 0 mm
08:05 15.7 °C 13.7 °C 1019.2 hPa Calm   9.7 km/h 88% 0 mm
08:10 15.8 °C 13.7 °C 1019.2 hPa SSE 1.6 km/h 9.7 km/h 87% 0 mm
08:15 15.9 °C 13.6 °C 1019.2 hPa SSE 3.2 km/h 9.7 km/h 86% 0 mm
08:20 15.9 °C 13.6 °C 1019.2 hPa SE 1.6 km/h 11.3 km/h 86% 0 mm
08:30 15.9 °C 13.4 °C 1019.2 hPa SSE 1.6 km/h 11.3 km/h 85% 0 mm
08:35 16 °C 13.5 °C 1019.2 hPa Calm   8 km/h 85% 0 mm
08:40 16 °C 13.5 °C 1019.2 hPa SSW 1.6 km/h 9.7 km/h 85% 0 mm
08:45 16.1 °C 13.6 °C 1019.2 hPa SSE 3.2 km/h 9.7 km/h 85% 0 mm
08:50 16.1 °C 13.6 °C 1019.5 hPa South 4.8 km/h 14.5 km/h 85% 0 mm
08:55 16.2 °C 13.7 °C 1019.5 hPa SSW 3.2 km/h 14.5 km/h 85% 0 mm
09:05 16.3 °C 13.8 °C 1019.5 hPa SSW 1.6 km/h 9.7 km/h 85% 0 mm
09:10 16.3 °C 13.8 °C 1019.5 hPa SW 1.6 km/h 8 km/h 85% 0 mm
09:15 16.3 °C 13.9 °C 1019.5 hPa Calm   8 km/h 86% 0 mm
09:20 16.3 °C 13.9 °C 1019.9 hPa Calm   6.4 km/h 86% 0 mm
09:25 16.4 °C 13.9 °C 1019.9 hPa SSW 1.6 km/h 16.1 km/h 85% 0 mm
09:30 16.6 °C 14 °C 1019.9 hPa South 3.2 km/h 16.1 km/h 85% 0 mm
09:35 16.7 °C 13.9 °C 1019.9 hPa SSE 1.6 km/h 12.9 km/h 84% 0 mm
09:40 16.7 °C 13.8 °C 1019.9 hPa SE 3.2 km/h 12.9 km/h 83% 0 mm
09:45 16.8 °C 14.1 °C 1019.9 hPa South 3.2 km/h 12.9 km/h 84% 0 mm
09:50 16.8 °C 13.7 °C 1019.9 hPa SE 4.8 km/h 16.1 km/h 82% 0 mm
10:00 16.9 °C 13.6 °C 1019.9 hPa South 8 km/h 16.1 km/h 81% 0 mm
10:05 16.9 °C 13.7 °C 1019.9 hPa SSE 3.2 km/h 19.3 km/h 81% 0 mm
10:10 16.9 °C 13.7 °C 1019.9 hPa SSE 6.4 km/h 19.3 km/h 81% 0 mm
10:15 16.9 °C 13.6 °C 1019.9 hPa SE 6.4 km/h 27.4 km/h 81% 0 mm
10:20 16.9 °C 13.8 °C 1019.9 hPa SSW 1.6 km/h 27.4 km/h 82% 0 mm
10:25 16.9 °C 13.8 °C 1019.9 hPa SSE 3.2 km/h 19.3 km/h 82% 0 mm
10:30 16.9 °C 13.7 °C 1019.9 hPa SE 4.8 km/h 17.7 km/h 81% 0 mm
10:35 17 °C 13.9 °C 1019.9 hPa Calm   17.7 km/h 82% 0 mm
10:40 17.1 °C 13.8 °C 1019.5 hPa WSW 3.2 km/h 11.3 km/h 81% 0 mm
10:45 17.3 °C 14 °C 1019.9 hPa WSW 1.6 km/h 11.3 km/h 81% 0 mm
10:50 17.4 °C 14.1 °C 1019.9 hPa South 8 km/h 14.5 km/h 81% 0 mm
11:00 17.6 °C 14.1 °C 1019.9 hPa South 6.4 km/h 19.3 km/h 80% 0 mm
11:05 17.7 °C 14.2 °C 1019.9 hPa SE 8 km/h 20.9 km/h 80% 0 mm
11:10 17.6 °C 14.1 °C 1019.9 hPa South 1.6 km/h 20.9 km/h 80% 0 mm
11:15 17.4 °C 14.2 °C 1019.9 hPa SSE 8 km/h 27.4 km/h 81% 0 mm
11:20 17.4 °C 14.2 °C 1019.9 hPa SSE 6.4 km/h 27.4 km/h 81% 0 mm
11:25 17.4 °C 14.2 °C 1019.9 hPa SSE 4.8 km/h 22.5 km/h 81% 0 mm
11:35 17.5 °C 14.2 °C 1019.9 hPa SE 6.4 km/h 14.5 km/h 81% 0 mm
11:40 17.5 °C 14.4 °C 1019.9 hPa South 4.8 km/h 11.3 km/h 82% 0 mm
11:45 17.5 °C 14.4 °C 1020.2 hPa Calm   11.3 km/h 82% 0 mm
11:50 17.5 °C 14.4 °C 1020.2 hPa SSE 4.8 km/h 9.7 km/h 82% 0 mm
11:55 17.6 °C 14.3 °C 1019.9 hPa South 8 km/h 11.3 km/h 81% 0 mm
12:00 17.6 °C 14.3 °C 1020.2 hPa SE 6.4 km/h 17.7 km/h 81% 0 mm
12:05 17.6 °C 14.5 °C 1020.2 hPa SSE 3.2 km/h 17.7 km/h 82% 0 mm
12:10 17.8 °C 14.7 °C 1019.9 hPa Calm   12.9 km/h 82% 0 mm
12:15 18.1 °C 14.9 °C 1020.2 hPa South 3.2 km/h 14.5 km/h 82% 0 mm
12:20 18.4 °C 14.9 °C 1019.9 hPa South 1.6 km/h 17.7 km/h 80% 0 mm
12:25 18.7 °C 14.8 °C 1019.9 hPa South 9.7 km/h 24.1 km/h 78% 0 mm
12:30 18.8 °C 14.9 °C 1019.9 hPa South 1.6 km/h 24.1 km/h 78% 0 mm
12:35 18.9 °C 15 °C 1019.9 hPa South 3.2 km/h 20.9 km/h 78% 0 mm
12:40 18.9 °C 15 °C 1019.9 hPa South 6.4 km/h 20.9 km/h 78% 0 mm
12:45 18.8 °C 14.4 °C 1019.9 hPa South 8 km/h 20.9 km/h 76% 0 mm
12:50 18.9 °C 15 °C 1019.9 hPa SSW 3.2 km/h 20.9 km/h 78% 0 mm
12:55 19.4 °C 15.4 °C 1019.5 hPa South 4.8 km/h 19.3 km/h 78% 0 mm
13:00 19.6 °C 15.1 °C 1019.5 hPa SSE 6.4 km/h 16.1 km/h 75% 0 mm
13:05 19.6 °C 15.2 °C 1019.5 hPa SSW 4.8 km/h 16.1 km/h 76% 0 mm
13:10 19.7 °C 14.9 °C 1019.5 hPa SE 6.4 km/h 19.3 km/h 74% 0 mm
13:15 20 °C 15.4 °C 1019.5 hPa South 8 km/h 19.3 km/h 75% 0 mm
13:20 20.1 °C 15.1 °C 1019.5 hPa SSE 8 km/h 20.9 km/h 73% 0 mm
13:25 20.1 °C 15.6 °C 1019.5 hPa SSW 3.2 km/h 20.9 km/h 75% 0 mm
13:30 20.1 °C 15.3 °C 1019.5 hPa SSW 3.2 km/h 11.3 km/h 74% 0 mm
13:35 19.6 °C 15.1 °C 1019.5 hPa South 9.7 km/h 17.7 km/h 75% 0 mm
13:40 19.3 °C 14.9 °C 1019.9 hPa SSW 1.6 km/h 17.7 km/h 76% 0 mm
13:45 19 °C 14.7 °C 1019.5 hPa SE 6.4 km/h 19.3 km/h 76% 0 mm
13:50 19.1 °C 14.9 °C 1019.5 hPa Calm   19.3 km/h 77% 0 mm
13:55 19.2 °C 15.1 °C 1019.5 hPa South 3.2 km/h 12.9 km/h 77% 0 mm
14:00 19.3 °C 14.9 °C 1019.5 hPa East 3.2 km/h 12.9 km/h 76% 0 mm
14:05 19.3 °C 14.7 °C 1019.5 hPa South 6.4 km/h 17.7 km/h 75% 0 mm
14:10 19.3 °C 14.7 °C 1019.5 hPa South 9.7 km/h 19.3 km/h 75% 0 mm
14:15 19.2 °C 14.7 °C 1019.5 hPa South 3.2 km/h 25.7 km/h 75% 0 mm
14:20 19.3 °C 15.2 °C 1019.5 hPa South 3.2 km/h 25.7 km/h 77% 0 mm
14:25 19.6 °C 15.4 °C 1019.5 hPa Calm   14.5 km/h 77% 0 mm
14:30 19.5 °C 14.7 °C 1019.5 hPa SE 4.8 km/h 14.5 km/h 74% 0 mm
14:35 19.3 °C 14.7 °C 1019.5 hPa ESE 4.8 km/h 17.7 km/h 75% 0 mm
14:40 19.2 °C 14.8 °C 1019.5 hPa South 4.8 km/h 17.7 km/h 76% 0 mm
14:45 19 °C 14.7 °C 1019.5 hPa South 6.4 km/h 14.5 km/h 76% 0 mm
14:50 18.9 °C 14.8 °C 1019.5 hPa South 1.6 km/h 12.9 km/h 77% 0 mm
14:55 18.8 °C 14.7 °C 1019.5 hPa South 3.2 km/h 11.3 km/h 77% 0 mm
15:00 18.7 °C 14.8 °C 1019.5 hPa South 1.6 km/h 11.3 km/h 78% 0 mm
15:05 18.5 °C 14.6 °C 1019.5 hPa South 3.2 km/h 11.3 km/h 78% 0 mm
15:10 18.5 °C 14.8 °C 1019.5 hPa Calm   11.3 km/h 79% 0 mm
15:15 18.4 °C 14.6 °C 1019.5 hPa SSE 4.8 km/h 16.1 km/h 78% 0 mm
15:20 18.5 °C 14.8 °C 1019.5 hPa SSW 3.2 km/h 16.1 km/h 79% 0 mm
15:25 18.6 °C 14.8 °C 1019.2 hPa SE 3.2 km/h 12.9 km/h 79% 0 mm
15:30 18.7 °C 15 °C 1019.5 hPa Calm   12.9 km/h 79% 0 mm
15:35 19.1 °C 15.1 °C 1019.5 hPa South 4.8 km/h 12.9 km/h 78% 0 mm
15:40 19.1 °C 14.7 °C 1019.2 hPa SSE 3.2 km/h 16.1 km/h 76% 0 mm
15:45 19.1 °C 14.7 °C 1019.2 hPa SSE 4.8 km/h 16.1 km/h 76% 0 mm
15:50 19.1 °C 14.9 °C 1019.2 hPa SSE 1.6 km/h 14.5 km/h 77% 0 mm
15:55 19.1 °C 15 °C 1019.2 hPa Calm   11.3 km/h 77% 0 mm
16:00 19.1 °C 14.7 °C 1019.2 hPa South 6.4 km/h 14.5 km/h 76% 0 mm
16:05 19 °C 14.9 °C 1019.2 hPa South 3.2 km/h 14.5 km/h 77% 0 mm
16:10 18.9 °C 15 °C 1019.2 hPa South 3.2 km/h 11.3 km/h 78% 0 mm
16:15 18.7 °C 14.6 °C 1019.2 hPa SE 1.6 km/h 11.3 km/h 77% 0 mm
16:20 18.6 °C 14.5 °C 1019.2 hPa SSE 1.6 km/h 11.3 km/h 77% 0 mm
16:25 18.6 °C 14.9 °C 1018.8 hPa SSE 3.2 km/h 11.3 km/h 79% 0 mm
16:30 18.7 °C 14.8 °C 1018.8 hPa SSE 3.2 km/h 12.9 km/h 78% 0 mm
16:35 18.7 °C 14.8 °C 1018.8 hPa SSE 1.6 km/h 12.9 km/h 78% 0 mm
16:40 18.8 °C 14.9 °C 1018.8 hPa South 1.6 km/h 12.9 km/h 78% 0 mm
16:45 19 °C 14.5 °C 1018.8 hPa ESE 6.4 km/h 17.7 km/h 75% 0 mm
16:50 19.2 °C 14.7 °C 1018.8 hPa South 9.7 km/h 19.3 km/h 75% 0 mm
16:55 19.4 °C 14.7 °C 1018.8 hPa SE 6.4 km/h 19.3 km/h 74% 0 mm
17:00 19.5 °C 14.7 °C 1018.8 hPa SE 1.6 km/h 17.7 km/h 74% 0 mm
17:05 19.6 °C 14.8 °C 1018.8 hPa SSE 9.7 km/h 17.7 km/h 74% 0 mm
17:10 19.6 °C 15.3 °C 1018.8 hPa SW 1.6 km/h 17.7 km/h 76% 0 mm
17:15 19.7 °C 15.3 °C 1018.8 hPa SSW 3.2 km/h 9.7 km/h 76% 0 mm
17:20 19.5 °C 14.9 °C 1018.8 hPa SW 3.2 km/h 16.1 km/h 75% 0 mm
17:25 19.3 °C 14.6 °C 1018.8 hPa SSW 3.2 km/h 16.1 km/h 74% 0 mm
17:30 19.1 °C 14.6 °C 1018.8 hPa SSW 8 km/h 14.5 km/h 75% 0 mm
17:35 19 °C 14.9 °C 1018.8 hPa SW 1.6 km/h 14.5 km/h 77% 0 mm
17:40 18.8 °C 14.5 °C 1018.5 hPa South 4.8 km/h 14.5 km/h 76% 0 mm
17:45 18.9 °C 14.6 °C 1018.5 hPa SSW 8 km/h 12.9 km/h 76% 0 mm
17:50 18.9 °C 15 °C 1018.5 hPa Calm   12.9 km/h 78% 0 mm
17:55 19.1 °C 14.5 °C 1018.5 hPa SSW 3.2 km/h 11.3 km/h 75% 0 mm
18:00 19.1 °C 14.4 °C 1018.5 hPa SSW 6.4 km/h 11.3 km/h 74% 0 mm
18:05 19.1 °C 14.1 °C 1018.5 hPa SSE 6.4 km/h 17.7 km/h 73% 0 mm
18:10 19.1 °C 14.3 °C 1018.5 hPa South 4.8 km/h 17.7 km/h 74% 0 mm
18:15 19.1 °C 14.3 °C 1018.5 hPa South 6.4 km/h 12.9 km/h 74% 0 mm
18:20 18.9 °C 14.2 °C 1018.5 hPa South 6.4 km/h 17.7 km/h 74% 0 mm
18:25 18.9 °C 14 °C 1018.8 hPa SSW 4.8 km/h 17.7 km/h 73% 0 mm
18:30 18.9 °C 14 °C 1018.5 hPa SSW 8 km/h 19.3 km/h 73% 0 mm
18:40 19.3 °C 14.6 °C 1018.5 hPa SSW 3.2 km/h 20.9 km/h 74% 0 mm
18:45 19.6 °C 14.4 °C 1018.5 hPa SSW 3.2 km/h 20.9 km/h 72% 0 mm
18:55 19.4 °C 13.8 °C 1018.2 hPa South 4.8 km/h 19.3 km/h 70% 0 mm
19:00 19.2 °C 13.8 °C 1018.2 hPa SW 3.2 km/h 12.9 km/h 71% 0 mm
19:05 18.9 °C 13.7 °C 1018.5 hPa SSW 6.4 km/h 17.7 km/h 72% 0 mm
19:10 18.7 °C 13.7 °C 1018.2 hPa SSW 3.2 km/h 17.7 km/h 73% 0 mm
19:15 18.6 °C 13.6 °C 1018.2 hPa SW 6.4 km/h 12.9 km/h 73% 0 mm
19:20 18.4 °C 13.9 °C 1018.2 hPa SW 1.6 km/h 9.7 km/h 75% 0 mm
19:25 18.3 °C 13.6 °C 1018.2 hPa South 3.2 km/h 12.9 km/h 74% 0 mm
19:30 18.3 °C 13.6 °C 1018.2 hPa SSW 3.2 km/h 16.1 km/h 74% 0 mm
19:35 18.4 °C 13.4 °C 1018.2 hPa SW 1.6 km/h 16.1 km/h 73% 0 mm
19:40 18.4 °C 13.4 °C 1018.5 hPa SSE 3.2 km/h 11.3 km/h 73% 0 mm
19:45 18.3 °C 13.4 °C 1018.5 hPa Calm   11.3 km/h 73% 0 mm
19:55 18.1 °C 13.3 °C 1018.5 hPa South 3.2 km/h 12.9 km/h 74% 0 mm
20:00 17.9 °C 13.2 °C 1018.5 hPa Calm   16.1 km/h 74% 0 mm
20:05 17.8 °C 13.2 °C 1018.5 hPa SSW 3.2 km/h 16.1 km/h 74% 0 mm
20:10 17.9 °C 13.2 °C 1018.5 hPa South 8 km/h 19.3 km/h 74% 0 mm
20:15 18 °C 13.1 °C 1018.5 hPa South 4.8 km/h 19.3 km/h 73% 0 mm
20:25 18 °C 13.3 °C 1018.5 hPa South 6.4 km/h 12.9 km/h 74% 0 mm
20:30 17.9 °C 13.7 °C 1018.5 hPa Calm   12.9 km/h 76% 0 mm
20:40 17.1 °C 13.6 °C 1018.5 hPa Calm   1.6 km/h 80% 0 mm
20:45 16.8 °C 13.2 °C 1018.5 hPa Calm   8 km/h 79% 0 mm
20:50 16.7 °C 13.2 °C 1018.2 hPa Calm   8 km/h 80% 0 mm
20:55 16.3 °C 13.3 °C 1018.2 hPa Calm   1.6 km/h 82% 0 mm
21:00 16.1 °C 13.2 °C 1018.5 hPa Calm   3.2 km/h 83% 0 mm
21:05 15.9 °C 13.2 °C 1018.5 hPa Calm   4.8 km/h 84% 0 mm
21:10 15.8 °C 13.1 °C 1018.5 hPa Calm   4.8 km/h 84% 0 mm
21:15 15.6 °C 13.1 °C 1018.5 hPa SSW 1.6 km/h 4.8 km/h 85% 0 mm
21:20 15.3 °C 13 °C 1018.5 hPa Calm   4.8 km/h 86% 0 mm
21:25 15.3 °C 12.9 °C 1018.5 hPa Calm   4.8 km/h 86% 0 mm
21:30 15.3 °C 13.1 °C 1018.5 hPa Calm   3.2 km/h 87% 0 mm
21:35 15.3 °C 13.2 °C 1018.5 hPa Calm   3.2 km/h 87% 0 mm
21:40 15.4 °C 13.3 °C 1018.5 hPa Calm   1.6 km/h 87% 0 mm
21:45 15.4 °C 13.3 °C 1018.2 hPa Calm   1.6 km/h 87% 0 mm
21:50 15.4 °C 13.3 °C 1018.5 hPa Calm   1.6 km/h 87% 0 mm
21:55 15.4 °C 13.2 °C 1018.2 hPa Calm   1.6 km/h 87% 0 mm
22:00 15.4 °C 13.4 °C 1018.2 hPa Calm   1.6 km/h 88% 0 mm
22:05 15.4 °C 13.4 °C 1018.2 hPa Calm   1.6 km/h 88% 0 mm
22:10 15.3 °C 13.3 °C 1018.2 hPa Calm   1.6 km/h 88% 0 mm
22:15 15.4 °C 13.2 °C 1018.2 hPa Calm   1.6 km/h 87% 0 mm
22:20 15.5 °C 13.3 °C 1018.2 hPa Calm   1.6 km/h 87% 0 mm
22:30 16.2 °C 13.3 °C 1018.2 hPa Calm   8 km/h 83% 0 mm
22:35 16.7 °C 13.4 °C 1018.2 hPa SSW 4.8 km/h 9.7 km/h 81% 0 mm
22:40 17.1 °C 13.6 °C 1018.2 hPa SSW 1.6 km/h 9.7 km/h 80% 0 mm
22:45 17.2 °C 13.7 °C 1018.2 hPa SSW 4.8 km/h 12.9 km/h 80% 0 mm
22:50 17.1 °C 13.6 °C 1018.2 hPa Calm   14.5 km/h 80% 0 mm
22:55 17.1 °C 13.8 °C 1018.2 hPa SW 3.2 km/h 14.5 km/h 81% 0 mm
23:00 16.8 °C 13.7 °C 1017.8 hPa Calm   9.7 km/h 82% 0 mm
23:05 16.7 °C 13.6 °C 1017.8 hPa SSW 6.4 km/h 12.9 km/h 82% 0 mm
23:10 16.7 °C 13.8 °C 1017.8 hPa South 3.2 km/h 12.9 km/h 83% 0 mm
23:15 16.6 °C 13.7 °C 1017.8 hPa Calm   9.7 km/h 83% 0 mm
23:20 16.4 °C 13.7 °C 1017.8 hPa Calm   11.3 km/h 84% 0 mm
23:25 16.3 °C 13.8 °C 1017.5 hPa Calm   11.3 km/h 85% 0 mm
23:30 16.2 °C 13.7 °C 1017.8 hPa SSW 1.6 km/h 4.8 km/h 85% 0 mm
23:35 16.1 °C 13.6 °C 1017.5 hPa Calm   4.8 km/h 85% 0 mm
23:40 16.1 °C 13.7 °C 1017.5 hPa Calm     86% 0 mm
23:45 15.8 °C 13.6 °C 1017.5 hPa Calm   1.6 km/h 87% 0 mm
23:50 15.5 °C 13.5 °C 1017.5 hPa SSW 1.6 km/h 3.2 km/h 88% 0 mm
23:55 15.3 °C 13.5 °C 1017.5 hPa Calm   3.2 km/h 89% 0 mm
Westford Weather
Compliments of Weather Underground

 
 
Current Radar Loop:

Copyright © WestfordWeather.net 2007-2014. All rights reserved.